^^
Meteo Knjazevac Station Historical Data
Daily Summary for August 18, 2021 Units:  English    Metric   Both
Daily Weekly Monthly Yearly Custom
  High: Low: Average:
Temperature: 68.2 °F 63 °F 65 °F
Dew Point: 65.9 °F 62.6 °F 63.8 °F
Humidity: 99% 90% 96%
Wind Speed: 3mph 0mph 0.7mph
Wind Gust: 7mph - -
Wind- - SW
Pressure: 29.89 in 29.88 in -
Precipitation: 0.00 in    
Historical Graphs
 
 
Tabular Data for August 18, 2021
Time Temperature Dew Point Pressure Wind Wind Speed Wind Gust Humidity Rainfall Rate (Hourly) solar Conditions
00:00 68.2 °F 65.2 °F 29.89 in SW 3 mph 7 mph 90% 0.00 in 0 W/m2
00:10 68.2 °F 65.1 °F 29.89 in SW 2 mph 6 mph 90% 0.00 in 0 W/m2
00:20 68 °F 65 °F 29.89 in SW 2 mph 5 mph 90% 0.00 in 0 W/m2
00:30 67.8 °F 65.1 °F 29.88 in South 2 mph 6 mph 91% 0.00 in 0 W/m2
00:40 67.5 °F 64.8 °F 29.88 in SSW 2 mph 5 mph 91% 0.00 in 0 W/m2
00:50 67.3 °F 64.6 °F 29.88 in South 1 mph 3 mph 91% 0.00 in 0 W/m2
01:00 67.1 °F 65 °F 29.88 in SW 1 mph 2 mph 93% 0.00 in 0 W/m2
01:10 66.9 °F 64.8 °F 29.88 in SSE 1 mph 4 mph 93% 0.00 in 0 W/m2
01:20 66.7 °F 64.7 °F 29.88 in Calm   3 mph 93% 0.00 in 0 W/m2
01:30 66.4 °F 64.7 °F 29.88 in SW 1 mph 5 mph 94% 0.00 in 0 W/m2
01:40 66.3 °F 64.5 °F 29.88 in SW 2 mph 5 mph 94% 0.00 in 0 W/m2
01:50 66.2 °F 64.4 °F 29.88 in WSW 2 mph 3 mph 94% 0.00 in 0 W/m2
02:00 66.1 °F 64.3 °F 29.88 in SW 1 mph 3 mph 94% 0.00 in 0 W/m2
02:10 66 °F 64.5 °F 29.88 in Calm   2 mph 95% 0.00 in 0 W/m2
02:20 65.8 °F 64.4 °F 29.88 in SSW 1 mph 3 mph 95% 0.00 in 0 W/m2
02:30 65.7 °F 64.2 °F 29.88 in SW 1 mph 2 mph 95% 0.00 in 0 W/m2
02:40 65.5 °F 64 °F 29.88 in South 1 mph 3 mph 95% 0.00 in 0 W/m2
02:50 65.2 °F 63.7 °F 29.88 in Calm   4 mph 95% 0.00 in 0 W/m2
03:00 65.1 °F 63.7 °F 29.88 in SSW 1 mph 2 mph 95% 0.00 in 0 W/m2
03:10 64.9 °F 63.8 °F 29.88 in SW 1 mph 2 mph 96% 0.00 in 0 W/m2
03:20 64.8 °F 63.6 °F 29.88 in Calm   2 mph 96% 0.00 in 0 W/m2
03:30 64.6 °F 63.4 °F 29.88 in SSW 1 mph 2 mph 96% 0.00 in 0 W/m2
03:40 64.4 °F 63.2 °F 29.88 in SW 1 mph 3 mph 96% 0.00 in 0 W/m2
03:50 64.2 °F 63.1 °F 29.88 in Calm   2 mph 96% 0.00 in 0 W/m2
04:00 64 °F 62.9 °F 29.88 in Calm   2 mph 96% 0.00 in 0 W/m2
04:10 63.9 °F 62.7 °F 29.88 in Calm   1 mph 96% 0.00 in 0 W/m2
04:20 63.9 °F 62.7 °F 29.88 in Calm   2 mph 96% 0.00 in 0 W/m2
04:30 63.7 °F 63.1 °F 29.88 in SW 1 mph 2 mph 98% 0.00 in 0 W/m2
04:40 63.5 °F 62.9 °F 29.88 in Calm   2 mph 98% 0.00 in 0 W/m2
04:50 63.7 °F 63.1 °F 29.88 in Calm   2 mph 98% 0.00 in 0 W/m2
05:00 63.6 °F 63 °F 29.88 in WNW 1 mph 2 mph 98% 0.00 in 0 W/m2
05:10 63.5 °F 62.9 °F 29.88 in West 1 mph 2 mph 98% 0.00 in 5 W/m2
05:20 63.3 °F 62.7 °F 29.89 in SW 1 mph 2 mph 98% 0.00 in 11 W/m2
05:30 63.1 °F 62.6 °F 29.89 in SSW 1 mph 2 mph 98% 0.00 in 20 W/m2
05:40 63.1 °F 62.6 °F 29.89 in SW 1 mph 2 mph 98% 0.00 in 30 W/m2
05:50 63.1 °F 62.6 °F 29.89 in Calm   2 mph 98% 0.00 in 40 W/m2
06:00 63 °F 62.7 °F 29.89 in Calm   2 mph 99% 0.00 in 52 W/m2
06:10 63 °F 62.7 °F 29.89 in Calm   2 mph 99% 0.00 in 67 W/m2
06:20 63 °F 62.7 °F 29.89 in Calm   1 mph 99% 0.00 in 81 W/m2
06:30 63.1 °F 62.9 °F 29.89 in Calm   2 mph 99% 0.00 in 132 W/m2
06:40 63.1 °F 62.9 °F 29.89 in Calm   2 mph 99% 0.00 in 162 W/m2
06:50 63.3 °F 63 °F 29.89 in Calm   2 mph 99% 0.00 in 185 W/m2
07:00 63.5 °F 63.2 °F 29.89 in NW 1 mph 2 mph 99% 0.00 in 216 W/m2
07:10 63.7 °F 63.4 °F 29.89 in Calm   2 mph 99% 0.00 in 245 W/m2
07:20 64.2 °F 63.9 °F 29.89 in Calm   2 mph 99% 0.00 in 277 W/m2
07:30 64.6 °F 64.3 °F 29.89 in Calm   3 mph 99% 0.00 in 310 W/m2
07:40 64.9 °F 64.7 °F 29.89 in NW 1 mph 4 mph 99% 0.00 in 342 W/m2
07:50 65.5 °F 65.2 °F 29.89 in North 1 mph 3 mph 99% 0.00 in 382 W/m2
08:00 65.8 °F 65.3 °F 29.89 in Calm   3 mph 98% 0.00 in 418 W/m2
08:10 66.5 °F 65.9 °F 29.89 in South 1 mph 4 mph 98% 0.00 in 464 W/m2
Knjazevac, Serbia
Compliments of Weather Underground - 2 mb